sensor_id;sensor_type;location;lat;lon;timestamp;temperature;humidity
28530;DHT22;15737;49.760;6.632;2023-07-31T00:00:49;18.60;99.90
28530;DHT22;15737;49.760;6.632;2023-07-31T00:03:14;18.60;99.90
28530;DHT22;15737;49.760;6.632;2023-07-31T00:05:40;18.60;99.90
28530;DHT22;15737;49.760;6.632;2023-07-31T00:08:05;18.50;99.90
28530;DHT22;15737;49.760;6.632;2023-07-31T00:10:31;18.60;99.90
28530;DHT22;15737;49.760;6.632;2023-07-31T00:12:56;18.60;99.90
28530;DHT22;15737;49.760;6.632;2023-07-31T00:15:22;18.50;99.90
28530;DHT22;15737;49.760;6.632;2023-07-31T00:17:47;18.50;99.90
28530;DHT22;15737;49.760;6.632;2023-07-31T00:20:13;18.50;99.90
28530;DHT22;15737;49.760;6.632;2023-07-31T00:22:38;18.50;99.90
28530;DHT22;15737;49.760;6.632;2023-07-31T00:25:04;18.50;99.90
28530;DHT22;15737;49.760;6.632;2023-07-31T00:27:32;18.50;99.90
28530;DHT22;15737;49.760;6.632;2023-07-31T00:29:57;18.40;99.90
28530;DHT22;15737;49.760;6.632;2023-07-31T00:32:23;18.40;99.90
28530;DHT22;15737;49.760;6.632;2023-07-31T00:34:48;18.30;99.90
28530;DHT22;15737;49.760;6.632;2023-07-31T00:37:14;18.30;99.90
28530;DHT22;15737;49.760;6.632;2023-07-31T00:39:40;18.30;99.90
28530;DHT22;15737;49.760;6.632;2023-07-31T00:42:06;18.30;99.90
28530;DHT22;15737;49.760;6.632;2023-07-31T00:44:32;18.20;99.90
28530;DHT22;15737;49.760;6.632;2023-07-31T00:46:57;18.20;99.90
28530;DHT22;15737;49.760;6.632;2023-07-31T00:49:24;18.20;99.90
28530;DHT22;15737;49.760;6.632;2023-07-31T00:51:50;18.20;99.90
28530;DHT22;15737;49.760;6.632;2023-07-31T00:54:16;18.10;99.90
28530;DHT22;15737;49.760;6.632;2023-07-31T00:56:41;18.10;99.90
28530;DHT22;15737;49.760;6.632;2023-07-31T00:59:10;18.10;99.90
28530;DHT22;15737;49.760;6.632;2023-07-31T01:01:35;18.00;99.90
28530;DHT22;15737;49.760;6.632;2023-07-31T01:04:01;18.00;99.90
28530;DHT22;15737;49.760;6.632;2023-07-31T01:06:36;18.00;99.90
28530;DHT22;15737;49.760;6.632;2023-07-31T01:09:05;18.00;99.90
28530;DHT22;15737;49.760;6.632;2023-07-31T01:11:38;18.00;99.90
28530;DHT22;15737;49.760;6.632;2023-07-31T01:14:08;18.00;99.90
28530;DHT22;15737;49.760;6.632;2023-07-31T01:16:33;18.00;99.90
28530;DHT22;15737;49.760;6.632;2023-07-31T01:18:59;18.00;99.90
28530;DHT22;15737;49.760;6.632;2023-07-31T01:22:05;18.00;99.90
28530;DHT22;15737;49.760;6.632;2023-07-31T01:24:49;18.00;99.90
28530;DHT22;15737;49.760;6.632;2023-07-31T01:27:24;17.90;99.90
28530;DHT22;15737;49.760;6.632;2023-07-31T01:29:56;18.00;99.90
28530;DHT22;15737;49.760;6.632;2023-07-31T01:32:25;18.00;99.90
28530;DHT22;15737;49.760;6.632;2023-07-31T01:34:52;18.00;99.90
28530;DHT22;15737;49.760;6.632;2023-07-31T01:37:18;17.90;99.90
28530;DHT22;15737;49.760;6.632;2023-07-31T01:39:44;17.90;99.90
28530;DHT22;15737;49.760;6.632;2023-07-31T01:42:09;17.90;99.90
28530;DHT22;15737;49.760;6.632;2023-07-31T01:44:35;17.90;99.90
28530;DHT22;15737;49.760;6.632;2023-07-31T01:47:00;17.90;99.90
28530;DHT22;15737;49.760;6.632;2023-07-31T01:49:26;17.90;99.90
28530;DHT22;15737;49.760;6.632;2023-07-31T01:51:52;17.90;99.90
28530;DHT22;15737;49.760;6.632;2023-07-31T01:54:17;17.90;99.90
28530;DHT22;15737;49.760;6.632;2023-07-31T01:56:43;17.90;99.90
28530;DHT22;15737;49.760;6.632;2023-07-31T01:59:08;17.80;99.90
28530;DHT22;15737;49.760;6.632;2023-07-31T02:01:34;17.80;99.90
28530;DHT22;15737;49.760;6.632;2023-07-31T02:03:59;17.80;99.90
28530;DHT22;15737;49.760;6.632;2023-07-31T02:06:25;17.80;99.90
28530;DHT22;15737;49.760;6.632;2023-07-31T02:08:51;17.70;99.90
28530;DHT22;15737;49.760;6.632;2023-07-31T02:11:16;17.70;99.90
28530;DHT22;15737;49.760;6.632;2023-07-31T02:13:42;17.70;99.90
28530;DHT22;15737;49.760;6.632;2023-07-31T02:16:07;17.70;99.90
28530;DHT22;15737;49.760;6.632;2023-07-31T02:18:33;17.70;99.90
28530;DHT22;15737;49.760;6.632;2023-07-31T02:20:58;17.60;99.90
28530;DHT22;15737;49.760;6.632;2023-07-31T02:23:24;17.60;99.90
28530;DHT22;15737;49.760;6.632;2023-07-31T02:25:49;17.60;99.90
28530;DHT22;15737;49.760;6.632;2023-07-31T02:28:15;17.60;99.90
28530;DHT22;15737;49.760;6.632;2023-07-31T02:30:44;17.50;99.90
28530;DHT22;15737;49.760;6.632;2023-07-31T02:33:10;17.50;99.90
28530;DHT22;15737;49.760;6.632;2023-07-31T02:35:35;17.50;99.90
28530;DHT22;15737;49.760;6.632;2023-07-31T02:38:01;17.50;99.90
28530;DHT22;15737;49.760;6.632;2023-07-31T02:40:33;17.50;99.90
28530;DHT22;15737;49.760;6.632;2023-07-31T02:42:59;17.50;99.90
28530;DHT22;15737;49.760;6.632;2023-07-31T02:45:24;17.40;99.90
28530;DHT22;15737;49.760;6.632;2023-07-31T02:47:50;17.40;99.90
28530;DHT22;15737;49.760;6.632;2023-07-31T02:50:15;17.40;99.90
28530;DHT22;15737;49.760;6.632;2023-07-31T02:52:41;17.40;99.90
28530;DHT22;15737;49.760;6.632;2023-07-31T02:55:07;17.40;99.90
28530;DHT22;15737;49.760;6.632;2023-07-31T02:57:32;17.40;99.90
28530;DHT22;15737;49.760;6.632;2023-07-31T02:59:58;17.40;99.90
28530;DHT22;15737;49.760;6.632;2023-07-31T03:02:23;17.40;99.90
28530;DHT22;15737;49.760;6.632;2023-07-31T03:04:49;17.30;99.90
28530;DHT22;15737;49.760;6.632;2023-07-31T03:07:15;17.30;99.90
28530;DHT22;15737;49.760;6.632;2023-07-31T03:09:40;17.30;99.90
28530;DHT22;15737;49.760;6.632;2023-07-31T03:12:06;17.30;99.90
28530;DHT22;15737;49.760;6.632;2023-07-31T03:14:32;17.30;99.90
28530;DHT22;15737;49.760;6.632;2023-07-31T03:17:00;17.20;99.90
28530;DHT22;15737;49.760;6.632;2023-07-31T03:19:26;17.20;99.90
28530;DHT22;15737;49.760;6.632;2023-07-31T03:21:51;17.20;99.90
28530;DHT22;15737;49.760;6.632;2023-07-31T03:24:17;17.20;99.90
28530;DHT22;15737;49.760;6.632;2023-07-31T03:26:42;17.20;99.90
28530;DHT22;15737;49.760;6.632;2023-07-31T03:29:08;17.20;99.90
28530;DHT22;15737;49.760;6.632;2023-07-31T03:31:34;17.20;99.90
28530;DHT22;15737;49.760;6.632;2023-07-31T03:33:59;17.20;99.90
28530;DHT22;15737;49.760;6.632;2023-07-31T03:36:25;17.20;99.90
28530;DHT22;15737;49.760;6.632;2023-07-31T03:38:51;17.20;99.90
28530;DHT22;15737;49.760;6.632;2023-07-31T03:41:17;17.20;99.90
28530;DHT22;15737;49.760;6.632;2023-07-31T03:43:43;17.10;99.90
28530;DHT22;15737;49.760;6.632;2023-07-31T03:46:08;17.10;99.90
28530;DHT22;15737;49.760;6.632;2023-07-31T03:48:34;17.10;99.90
28530;DHT22;15737;49.760;6.632;2023-07-31T03:50:59;17.10;99.90
28530;DHT22;15737;49.760;6.632;2023-07-31T03:53:25;17.00;99.90
28530;DHT22;15737;49.760;6.632;2023-07-31T03:55:50;17.00;99.90
28530;DHT22;15737;49.760;6.632;2023-07-31T03:58:16;17.00;99.90
28530;DHT22;15737;49.760;6.632;2023-07-31T04:00:41;16.90;99.90
28530;DHT22;15737;49.760;6.632;2023-07-31T04:03:07;17.00;99.90
28530;DHT22;15737;49.760;6.632;2023-07-31T04:05:33;16.90;99.90
28530;DHT22;15737;49.760;6.632;2023-07-31T04:07:59;16.90;99.90
28530;DHT22;15737;49.760;6.632;2023-07-31T04:10:24;16.90;99.90
28530;DHT22;15737;49.760;6.632;2023-07-31T04:12:50;16.90;99.90
28530;DHT22;15737;49.760;6.632;2023-07-31T04:15:15;16.90;99.90
28530;DHT22;15737;49.760;6.632;2023-07-31T04:17:41;16.80;99.90
28530;DHT22;15737;49.760;6.632;2023-07-31T04:20:07;16.80;99.90
28530;DHT22;15737;49.760;6.632;2023-07-31T04:22:46;16.70;99.90
28530;DHT22;15737;49.760;6.632;2023-07-31T04:25:12;16.70;99.90
28530;DHT22;15737;49.760;6.632;2023-07-31T04:27:37;16.70;99.90
28530;DHT22;15737;49.760;6.632;2023-07-31T04:30:03;16.70;99.90
28530;DHT22;15737;49.760;6.632;2023-07-31T04:32:29;16.60;99.90
28530;DHT22;15737;49.760;6.632;2023-07-31T04:34:55;16.70;99.90
28530;DHT22;15737;49.760;6.632;2023-07-31T04:37:20;16.70;99.90
28530;DHT22;15737;49.760;6.632;2023-07-31T04:39:46;16.70;99.90
28530;DHT22;15737;49.760;6.632;2023-07-31T04:42:12;16.80;99.90
28530;DHT22;15737;49.760;6.632;2023-07-31T04:44:37;16.80;99.90
28530;DHT22;15737;49.760;6.632;2023-07-31T04:47:03;16.80;99.90
28530;DHT22;15737;49.760;6.632;2023-07-31T04:49:38;16.80;99.90
28530;DHT22;15737;49.760;6.632;2023-07-31T04:52:05;16.80;99.90
28530;DHT22;15737;49.760;6.632;2023-07-31T04:54:31;16.80;99.90
28530;DHT22;15737;49.760;6.632;2023-07-31T04:56:57;16.80;99.90
28530;DHT22;15737;49.760;6.632;2023-07-31T04:59:22;16.80;99.90
28530;DHT22;15737;49.760;6.632;2023-07-31T05:01:48;16.80;99.90
28530;DHT22;15737;49.760;6.632;2023-07-31T05:04:13;16.80;99.90
28530;DHT22;15737;49.760;6.632;2023-07-31T05:06:40;16.80;99.90
28530;DHT22;15737;49.760;6.632;2023-07-31T05:09:05;16.80;99.90
28530;DHT22;15737;49.760;6.632;2023-07-31T05:11:31;16.80;99.90
28530;DHT22;15737;49.760;6.632;2023-07-31T05:13:56;16.90;99.90
28530;DHT22;15737;49.760;6.632;2023-07-31T05:16:23;16.90;99.90
28530;DHT22;15737;49.760;6.632;2023-07-31T05:18:49;16.90;99.90
28530;DHT22;15737;49.760;6.632;2023-07-31T05:21:14;16.90;99.90
28530;DHT22;15737;49.760;6.632;2023-07-31T05:23:40;17.00;99.90
28530;DHT22;15737;49.760;6.632;2023-07-31T05:26:06;17.00;99.90
28530;DHT22;15737;49.760;6.632;2023-07-31T05:28:33;17.10;99.90
28530;DHT22;15737;49.760;6.632;2023-07-31T05:31:03;17.10;99.90
28530;DHT22;15737;49.760;6.632;2023-07-31T05:33:29;17.20;99.90
28530;DHT22;15737;49.760;6.632;2023-07-31T05:35:54;17.20;99.90
28530;DHT22;15737;49.760;6.632;2023-07-31T05:38:20;17.20;99.90
28530;DHT22;15737;49.760;6.632;2023-07-31T05:40:46;17.30;99.90
28530;DHT22;15737;49.760;6.632;2023-07-31T05:43:12;17.30;99.90
28530;DHT22;15737;49.760;6.632;2023-07-31T05:45:38;17.30;99.90
28530;DHT22;15737;49.760;6.632;2023-07-31T05:48:03;17.40;99.90
28530;DHT22;15737;49.760;6.632;2023-07-31T05:50:30;17.40;99.90
28530;DHT22;15737;49.760;6.632;2023-07-31T05:52:55;17.40;99.90
28530;DHT22;15737;49.760;6.632;2023-07-31T05:55:26;17.60;99.90
28530;DHT22;15737;49.760;6.632;2023-07-31T05:57:54;17.90;99.90
28530;DHT22;15737;49.760;6.632;2023-07-31T06:00:20;18.30;99.90
28530;DHT22;15737;49.760;6.632;2023-07-31T06:02:47;19.60;99.90
28530;DHT22;15737;49.760;6.632;2023-07-31T06:05:12;20.10;99.90
28530;DHT22;15737;49.760;6.632;2023-07-31T06:07:38;20.30;99.90
28530;DHT22;15737;49.760;6.632;2023-07-31T06:10:04;20.60;99.90
28530;DHT22;15737;49.760;6.632;2023-07-31T06:12:32;20.60;99.90
28530;DHT22;15737;49.760;6.632;2023-07-31T06:14:58;20.40;99.90
28530;DHT22;15737;49.760;6.632;2023-07-31T06:17:23;20.40;99.90
28530;DHT22;15737;49.760;6.632;2023-07-31T06:19:49;20.40;99.90
28530;DHT22;15737;49.760;6.632;2023-07-31T06:22:20;20.90;99.90
28530;DHT22;15737;49.760;6.632;2023-07-31T06:24:46;21.60;99.90
28530;DHT22;15737;49.760;6.632;2023-07-31T06:27:11;23.60;99.90
28530;DHT22;15737;49.760;6.632;2023-07-31T06:29:37;24.50;99.90
28530;DHT22;15737;49.760;6.632;2023-07-31T06:32:03;25.80;97.70
28530;DHT22;15737;49.760;6.632;2023-07-31T06:34:29;26.20;95.70
28530;DHT22;15737;49.760;6.632;2023-07-31T06:36:58;26.40;94.00
28530;DHT22;15737;49.760;6.632;2023-07-31T06:39:23;25.50;94.80
28530;DHT22;15737;49.760;6.632;2023-07-31T06:41:49;23.70;97.20
28530;DHT22;15737;49.760;6.632;2023-07-31T06:44:15;22.50;99.60
28530;DHT22;15737;49.760;6.632;2023-07-31T06:46:41;21.50;99.90
28530;DHT22;15737;49.760;6.632;2023-07-31T06:49:22;20.80;99.90
28530;DHT22;15737;49.760;6.632;2023-07-31T06:52:13;20.20;99.90
28530;DHT22;15737;49.760;6.632;2023-07-31T06:55:03;19.80;99.90
28530;DHT22;15737;49.760;6.632;2023-07-31T06:57:51;19.60;99.90
28530;DHT22;15737;49.760;6.632;2023-07-31T07:00:36;19.70;99.90
28530;DHT22;15737;49.760;6.632;2023-07-31T07:03:18;19.70;99.90
28530;DHT22;15737;49.760;6.632;2023-07-31T07:24:08;20.00;99.90
28530;DHT22;15737;49.760;6.632;2023-07-31T07:26:50;20.00;99.90
28530;DHT22;15737;49.760;6.632;2023-07-31T07:29:41;19.90;99.90
28530;DHT22;15737;49.760;6.632;2023-07-31T07:32:18;19.90;99.90
28530;DHT22;15737;49.760;6.632;2023-07-31T07:35:00;20.00;99.90
28530;DHT22;15737;49.760;6.632;2023-07-31T07:37:36;19.80;99.90
28530;DHT22;15737;49.760;6.632;2023-07-31T07:40:02;20.00;99.90
28530;DHT22;15737;49.760;6.632;2023-07-31T07:42:28;20.50;99.90
28530;DHT22;15737;49.760;6.632;2023-07-31T07:44:53;21.10;99.90
28530;DHT22;15737;49.760;6.632;2023-07-31T07:47:19;21.40;99.90
28530;DHT22;15737;49.760;6.632;2023-07-31T07:49:44;21.40;99.90
28530;DHT22;15737;49.760;6.632;2023-07-31T07:52:19;21.30;99.90
28530;DHT22;15737;49.760;6.632;2023-07-31T07:57:29;21.70;99.90
28530;DHT22;15737;49.760;6.632;2023-07-31T07:59:54;21.70;99.90
28530;DHT22;15737;49.760;6.632;2023-07-31T08:02:20;21.60;99.90
28530;DHT22;15737;49.760;6.632;2023-07-31T08:04:45;21.40;99.90
28530;DHT22;15737;49.760;6.632;2023-07-31T08:07:11;20.90;99.90
28530;DHT22;15737;49.760;6.632;2023-07-31T08:09:40;20.80;99.90
28530;DHT22;15737;49.760;6.632;2023-07-31T08:12:06;21.10;99.90
28530;DHT22;15737;49.760;6.632;2023-07-31T08:14:32;21.40;99.90
28530;DHT22;15737;49.760;6.632;2023-07-31T08:16:58;21.70;99.90
28530;DHT22;15737;49.760;6.632;2023-07-31T08:19:23;21.70;99.90
28530;DHT22;15737;49.760;6.632;2023-07-31T08:21:49;21.70;99.90
28530;DHT22;15737;49.760;6.632;2023-07-31T08:24:14;21.80;99.90
28530;DHT22;15737;49.760;6.632;2023-07-31T08:26:40;21.90;99.90
28530;DHT22;15737;49.760;6.632;2023-07-31T08:29:06;21.70;99.90
28530;DHT22;15737;49.760;6.632;2023-07-31T08:31:31;21.60;99.90
28530;DHT22;15737;49.760;6.632;2023-07-31T08:33:57;21.90;99.90
28530;DHT22;15737;49.760;6.632;2023-07-31T08:36:22;22.80;99.90
28530;DHT22;15737;49.760;6.632;2023-07-31T08:38:48;22.90;99.90
28530;DHT22;15737;49.760;6.632;2023-07-31T08:41:13;22.50;99.90
28530;DHT22;15737;49.760;6.632;2023-07-31T08:43:39;22.40;99.90
28530;DHT22;15737;49.760;6.632;2023-07-31T08:46:05;22.20;99.90
28530;DHT22;15737;49.760;6.632;2023-07-31T08:48:32;22.20;99.90
28530;DHT22;15737;49.760;6.632;2023-07-31T08:51:00;22.30;99.90
28530;DHT22;15737;49.760;6.632;2023-07-31T08:53:25;22.30;99.90
28530;DHT22;15737;49.760;6.632;2023-07-31T08:55:52;21.90;99.90
28530;DHT22;15737;49.760;6.632;2023-07-31T08:58:19;21.70;99.90
28530;DHT22;15737;49.760;6.632;2023-07-31T09:00:46;21.50;99.90
28530;DHT22;15737;49.760;6.632;2023-07-31T09:03:17;21.40;99.90
28530;DHT22;15737;49.760;6.632;2023-07-31T09:05:45;21.20;99.90
28530;DHT22;15737;49.760;6.632;2023-07-31T09:08:12;20.90;99.90
28530;DHT22;15737;49.760;6.632;2023-07-31T09:10:42;20.60;99.90
28530;DHT22;15737;49.760;6.632;2023-07-31T09:13:09;20.50;99.90
28530;DHT22;15737;49.760;6.632;2023-07-31T09:15:35;20.60;99.90
28530;DHT22;15737;49.760;6.632;2023-07-31T09:18:02;20.60;99.90
28530;DHT22;15737;49.760;6.632;2023-07-31T09:20:27;20.70;99.90
28530;DHT22;15737;49.760;6.632;2023-07-31T09:22:53;20.70;99.90
28530;DHT22;15737;49.760;6.632;2023-07-31T09:25:24;20.90;99.90
28530;DHT22;15737;49.760;6.632;2023-07-31T09:30:19;21.60;99.90
28530;DHT22;15737;49.760;6.632;2023-07-31T09:32:46;21.60;99.90
28530;DHT22;15737;49.760;6.632;2023-07-31T09:35:22;21.80;99.90
28530;DHT22;15737;49.760;6.632;2023-07-31T09:37:52;21.90;99.90
28530;DHT22;15737;49.760;6.632;2023-07-31T09:40:34;21.90;99.90
28530;DHT22;15737;49.760;6.632;2023-07-31T09:43:05;22.00;99.90
28530;DHT22;15737;49.760;6.632;2023-07-31T09:45:35;22.00;99.90
28530;DHT22;15737;49.760;6.632;2023-07-31T09:48:09;22.10;99.90
28530;DHT22;15737;49.760;6.632;2023-07-31T09:50:37;22.00;99.90
28530;DHT22;15737;49.760;6.632;2023-07-31T09:53:04;22.20;99.90
28530;DHT22;15737;49.760;6.632;2023-07-31T09:55:30;22.30;99.90
28530;DHT22;15737;49.760;6.632;2023-07-31T09:57:57;22.20;99.90
28530;DHT22;15737;49.760;6.632;2023-07-31T10:00:23;22.10;99.90
28530;DHT22;15737;49.760;6.632;2023-07-31T10:02:51;22.30;99.90
28530;DHT22;15737;49.760;6.632;2023-07-31T10:05:17;22.20;99.90
28530;DHT22;15737;49.760;6.632;2023-07-31T10:07:50;21.90;99.90
28530;DHT22;15737;49.760;6.632;2023-07-31T10:10:16;21.70;99.90
28530;DHT22;15737;49.760;6.632;2023-07-31T10:12:45;21.40;99.90
28530;DHT22;15737;49.760;6.632;2023-07-31T10:15:12;21.30;99.90
28530;DHT22;15737;49.760;6.632;2023-07-31T10:17:38;21.20;99.90
28530;DHT22;15737;49.760;6.632;2023-07-31T10:20:05;21.20;99.90
28530;DHT22;15737;49.760;6.632;2023-07-31T10:22:31;21.10;99.90
28530;DHT22;15737;49.760;6.632;2023-07-31T10:24:59;21.10;99.90
28530;DHT22;15737;49.760;6.632;2023-07-31T10:27:25;21.00;99.90
28530;DHT22;15737;49.760;6.632;2023-07-31T10:29:51;21.00;99.90
28530;DHT22;15737;49.760;6.632;2023-07-31T10:32:17;21.10;99.90
28530;DHT22;15737;49.760;6.632;2023-07-31T10:34:43;21.00;99.90
28530;DHT22;15737;49.760;6.632;2023-07-31T10:37:27;21.10;99.90
28530;DHT22;15737;49.760;6.632;2023-07-31T10:42:28;21.20;99.90
28530;DHT22;15737;49.760;6.632;2023-07-31T10:45:06;21.30;99.90
28530;DHT22;15737;49.760;6.632;2023-07-31T10:47:59;21.30;99.90
28530;DHT22;15737;49.760;6.632;2023-07-31T10:50:26;21.20;99.90
28530;DHT22;15737;49.760;6.632;2023-07-31T10:52:56;21.20;99.90
28530;DHT22;15737;49.760;6.632;2023-07-31T10:55:42;21.60;99.90
28530;DHT22;15737;49.760;6.632;2023-07-31T10:58:12;21.70;99.90
28530;DHT22;15737;49.760;6.632;2023-07-31T11:03:13;22.70;99.10
28530;DHT22;15737;49.760;6.632;2023-07-31T11:05:46;22.60;98.90
28530;DHT22;15737;49.760;6.632;2023-07-31T11:08:29;22.70;98.60
28530;DHT22;15737;49.760;6.632;2023-07-31T11:13:39;22.80;99.00
28530;DHT22;15737;49.760;6.632;2023-07-31T11:16:04;22.80;98.90
28530;DHT22;15737;49.760;6.632;2023-07-31T11:18:30;22.70;99.00
28530;DHT22;15737;49.760;6.632;2023-07-31T11:20:56;22.90;99.10
28530;DHT22;15737;49.760;6.632;2023-07-31T11:23:22;23.80;97.80
28530;DHT22;15737;49.760;6.632;2023-07-31T11:25:48;23.90;97.20
28530;DHT22;15737;49.760;6.632;2023-07-31T11:28:15;23.30;97.90
28530;DHT22;15737;49.760;6.632;2023-07-31T11:30:42;22.80;98.80
28530;DHT22;15737;49.760;6.632;2023-07-31T11:33:10;22.40;99.40
28530;DHT22;15737;49.760;6.632;2023-07-31T11:35:41;21.90;99.90
28530;DHT22;15737;49.760;6.632;2023-07-31T11:38:37;21.40;99.90
28530;DHT22;15737;49.760;6.632;2023-07-31T11:41:09;21.10;99.90
28530;DHT22;15737;49.760;6.632;2023-07-31T11:43:38;20.80;99.90
28530;DHT22;15737;49.760;6.632;2023-07-31T11:46:03;20.50;99.90
28530;DHT22;15737;49.760;6.632;2023-07-31T11:48:36;20.40;99.90
28530;DHT22;15737;49.760;6.632;2023-07-31T11:51:04;20.30;99.90
28530;DHT22;15737;49.760;6.632;2023-07-31T11:53:41;20.40;99.90
28530;DHT22;15737;49.760;6.632;2023-07-31T11:56:12;20.40;99.90
28530;DHT22;15737;49.760;6.632;2023-07-31T11:58:38;20.40;99.90
28530;DHT22;15737;49.760;6.632;2023-07-31T12:01:05;20.60;99.90
28530;DHT22;15737;49.760;6.632;2023-07-31T12:03:32;20.70;99.90
28530;DHT22;15737;49.760;6.632;2023-07-31T12:05:58;20.70;99.90
28530;DHT22;15737;49.760;6.632;2023-07-31T12:08:24;20.50;99.90
28530;DHT22;15737;49.760;6.632;2023-07-31T12:10:51;20.20;99.90
28530;DHT22;15737;49.760;6.632;2023-07-31T12:13:24;19.90;99.90
28530;DHT22;15737;49.760;6.632;2023-07-31T12:15:56;19.80;99.90
28530;DHT22;15737;49.760;6.632;2023-07-31T12:18:24;19.70;99.90
28530;DHT22;15737;49.760;6.632;2023-07-31T12:23:21;19.60;99.90
28530;DHT22;15737;49.760;6.632;2023-07-31T12:26:04;19.60;99.90
28530;DHT22;15737;49.760;6.632;2023-07-31T12:28:35;19.60;99.90
28530;DHT22;15737;49.760;6.632;2023-07-31T12:31:01;19.60;99.90
28530;DHT22;15737;49.760;6.632;2023-07-31T12:33:35;19.50;99.90
28530;DHT22;15737;49.760;6.632;2023-07-31T12:36:03;19.10;99.90
28530;DHT22;15737;49.760;6.632;2023-07-31T12:38:29;18.90;99.90
28530;DHT22;15737;49.760;6.632;2023-07-31T12:40:55;18.90;99.90
28530;DHT22;15737;49.760;6.632;2023-07-31T12:43:20;18.70;99.90
28530;DHT22;15737;49.760;6.632;2023-07-31T12:45:46;18.40;99.90
28530;DHT22;15737;49.760;6.632;2023-07-31T12:48:13;18.20;99.90
28530;DHT22;15737;49.760;6.632;2023-07-31T12:50:39;18.00;99.90
28530;DHT22;15737;49.760;6.632;2023-07-31T12:53:05;17.90;99.90
28530;DHT22;15737;49.760;6.632;2023-07-31T12:55:31;18.00;99.90
28530;DHT22;15737;49.760;6.632;2023-07-31T12:57:58;18.10;99.90
28530;DHT22;15737;49.760;6.632;2023-07-31T13:00:23;18.30;99.90
28530;DHT22;15737;49.760;6.632;2023-07-31T13:02:49;18.40;99.90
28530;DHT22;15737;49.760;6.632;2023-07-31T13:05:15;18.20;99.90
28530;DHT22;15737;49.760;6.632;2023-07-31T13:07:41;18.10;99.90
28530;DHT22;15737;49.760;6.632;2023-07-31T13:10:07;18.10;99.90
28530;DHT22;15737;49.760;6.632;2023-07-31T13:12:33;18.50;99.90
28530;DHT22;15737;49.760;6.632;2023-07-31T13:14:58;18.80;99.90
28530;DHT22;15737;49.760;6.632;2023-07-31T13:17:24;18.90;99.90
28530;DHT22;15737;49.760;6.632;2023-07-31T13:19:50;19.00;99.90
28530;DHT22;15737;49.760;6.632;2023-07-31T13:22:15;18.90;99.90
28530;DHT22;15737;49.760;6.632;2023-07-31T13:24:41;18.90;99.90
28530;DHT22;15737;49.760;6.632;2023-07-31T13:27:07;18.90;99.90
28530;DHT22;15737;49.760;6.632;2023-07-31T13:29:32;19.00;99.90
28530;DHT22;15737;49.760;6.632;2023-07-31T13:31:58;19.20;99.90
28530;DHT22;15737;49.760;6.632;2023-07-31T13:34:24;19.80;99.90
28530;DHT22;15737;49.760;6.632;2023-07-31T13:36:49;20.50;99.90
28530;DHT22;15737;49.760;6.632;2023-07-31T13:39:14;21.10;99.90
28530;DHT22;15737;49.760;6.632;2023-07-31T13:41:43;21.20;99.90
28530;DHT22;15737;49.760;6.632;2023-07-31T13:44:08;21.30;99.90
28530;DHT22;15737;49.760;6.632;2023-07-31T13:46:34;21.60;99.90
28530;DHT22;15737;49.760;6.632;2023-07-31T13:48:59;21.60;99.90
28530;DHT22;15737;49.760;6.632;2023-07-31T13:51:26;21.20;99.90
28530;DHT22;15737;49.760;6.632;2023-07-31T13:53:53;20.70;99.90
28530;DHT22;15737;49.760;6.632;2023-07-31T13:56:18;20.60;99.90
28530;DHT22;15737;49.760;6.632;2023-07-31T13:58:44;20.50;99.90
28530;DHT22;15737;49.760;6.632;2023-07-31T14:01:09;20.20;99.90
28530;DHT22;15737;49.760;6.632;2023-07-31T14:03:35;19.90;99.90
28530;DHT22;15737;49.760;6.632;2023-07-31T14:06:00;19.60;99.90
28530;DHT22;15737;49.760;6.632;2023-07-31T14:08:26;19.40;99.90
28530;DHT22;15737;49.760;6.632;2023-07-31T14:10:51;19.20;99.90
28530;DHT22;15737;49.760;6.632;2023-07-31T14:13:17;19.10;99.90
28530;DHT22;15737;49.760;6.632;2023-07-31T14:18:08;19.10;99.90
28530;DHT22;15737;49.760;6.632;2023-07-31T14:20:34;19.20;99.90
28530;DHT22;15737;49.760;6.632;2023-07-31T14:23:00;19.30;99.90
28530;DHT22;15737;49.760;6.632;2023-07-31T14:25:26;19.30;99.90
28530;DHT22;15737;49.760;6.632;2023-07-31T14:27:51;19.30;99.90
28530;DHT22;15737;49.760;6.632;2023-07-31T14:30:17;19.10;99.90
28530;DHT22;15737;49.760;6.632;2023-07-31T14:32:43;18.90;99.90
28530;DHT22;15737;49.760;6.632;2023-07-31T14:35:09;18.70;99.90
28530;DHT22;15737;49.760;6.632;2023-07-31T14:37:43;18.70;99.90
28530;DHT22;15737;49.760;6.632;2023-07-31T14:40:10;18.70;99.90
28530;DHT22;15737;49.760;6.632;2023-07-31T14:42:36;18.70;99.90
28530;DHT22;15737;49.760;6.632;2023-07-31T14:45:03;18.60;99.90
28530;DHT22;15737;49.760;6.632;2023-07-31T14:50:05;18.70;99.90
28530;DHT22;15737;49.760;6.632;2023-07-31T14:52:31;18.70;99.90
28530;DHT22;15737;49.760;6.632;2023-07-31T14:54:56;18.70;99.90
28530;DHT22;15737;49.760;6.632;2023-07-31T14:57:22;18.90;99.90
28530;DHT22;15737;49.760;6.632;2023-07-31T15:07:32;19.90;99.90
28530;DHT22;15737;49.760;6.632;2023-07-31T15:09:58;19.80;99.90
28530;DHT22;15737;49.760;6.632;2023-07-31T15:12:23;19.70;99.90
28530;DHT22;15737;49.760;6.632;2023-07-31T15:14:49;19.50;99.90
28530;DHT22;15737;49.760;6.632;2023-07-31T15:20:00;19.30;99.90
28530;DHT22;15737;49.760;6.632;2023-07-31T15:22:31;19.20;99.90
28530;DHT22;15737;49.760;6.632;2023-07-31T15:24:58;19.10;99.90
28530;DHT22;15737;49.760;6.632;2023-07-31T15:27:40;19.00;99.90
28530;DHT22;15737;49.760;6.632;2023-07-31T15:30:06;18.90;99.90
28530;DHT22;15737;49.760;6.632;2023-07-31T15:32:44;18.70;99.90
28530;DHT22;15737;49.760;6.632;2023-07-31T15:37:53;18.20;99.90
28530;DHT22;15737;49.760;6.632;2023-07-31T15:40:18;18.00;99.90
28530;DHT22;15737;49.760;6.632;2023-07-31T15:42:44;17.90;99.90
28530;DHT22;15737;49.760;6.632;2023-07-31T15:45:09;17.80;99.90
28530;DHT22;15737;49.760;6.632;2023-07-31T15:47:36;17.70;99.90
28530;DHT22;15737;49.760;6.632;2023-07-31T15:50:02;17.70;99.90
28530;DHT22;15737;49.760;6.632;2023-07-31T15:52:27;17.70;99.90
28530;DHT22;15737;49.760;6.632;2023-07-31T15:54:53;17.80;99.90
28530;DHT22;15737;49.760;6.632;2023-07-31T15:57:18;17.80;99.90
28530;DHT22;15737;49.760;6.632;2023-07-31T15:59:44;18.10;99.90
28530;DHT22;15737;49.760;6.632;2023-07-31T16:02:20;18.20;99.90
28530;DHT22;15737;49.760;6.632;2023-07-31T16:04:45;18.40;99.90
28530;DHT22;15737;49.760;6.632;2023-07-31T16:07:11;18.50;99.90
28530;DHT22;15737;49.760;6.632;2023-07-31T16:09:37;18.60;99.90
28530;DHT22;15737;49.760;6.632;2023-07-31T16:12:03;18.70;99.90
28530;DHT22;15737;49.760;6.632;2023-07-31T16:14:30;18.70;99.90
28530;DHT22;15737;49.760;6.632;2023-07-31T16:16:56;18.70;99.90
28530;DHT22;15737;49.760;6.632;2023-07-31T16:19:21;18.60;99.90
28530;DHT22;15737;49.760;6.632;2023-07-31T16:21:47;18.70;99.90
28530;DHT22;15737;49.760;6.632;2023-07-31T16:24:13;18.70;99.90